Time;durP1;ratioP1;P1;durP2;ratioP2;P2;SDS_P1;SDS_P2;PMS_P1;PMS_P2;Temp;Humidity;BMP_temperature;BMP_pressure;BME280_temperature;BME280_humidity;BME280_pressure;Samples;Min_cycle;Max_cycle;Signal;HPM_P1;HPM_P2
2023/06/24 00:00:13;;;;;;;9.68;7.65;;;;;;;15.14;nan;101449.09;4990100;28;20050;-84
2023/06/24 00:02:43;;;;;;;10.15;7.32;;;;;;;15.05;nan;101454.66;4989235;28;20527;-84
2023/06/24 00:05:11;;;;;;;11.05;8.02;;;;;;;15.02;nan;101460.94;4980642;28;20400;-84
2023/06/24 00:07:44;;;;;;;8.10;6.75;;;;;;;14.88;nan;101458.66;4989203;28;20051;-84
2023/06/24 00:10:13;;;;;;;9.48;6.85;;;;;;;14.84;nan;101464.94;5000279;28;20046;-84
2023/06/24 00:12:45;;;;;;;9.57;6.97;;;;;;;14.86;nan;101471.09;4995627;28;20045;-84
2023/06/24 00:15:12;;;;;;;11.13;7.63;;;;;;;14.87;nan;101463.97;4993455;28;20034;-84
2023/06/24 00:17:40;;;;;;;10.98;7.75;;;;;;;14.87;nan;101462.19;4995343;28;20038;-84
2023/06/24 00:20:10;;;;;;;12.00;7.35;;;;;;;14.84;nan;101469.38;5002455;28;20050;-84
2023/06/24 00:22:43;;;;;;;9.70;7.32;;;;;;;14.76;nan;101461.59;4978146;28;20045;-83
2023/06/24 00:25:10;;;;;;;9.30;8.05;;;;;;;14.75;nan;101461.66;4997768;28;20545;-83
2023/06/24 00:27:38;;;;;;;10.23;6.82;;;;;;;14.72;nan;101477.69;4996041;28;20040;-83
2023/06/24 00:30:05;;;;;;;10.00;6.93;;;;;;;14.63;nan;101476.13;4975766;28;20038;-84
2023/06/24 00:32:33;;;;;;;10.60;7.78;;;;;;;14.68;nan;101483.97;5003150;28;20125;-84
2023/06/24 00:35:00;;;;;;;10.63;7.25;;;;;;;14.60;nan;101482.38;4980533;28;20048;-83
2023/06/24 00:37:27;;;;;;;8.85;7.13;;;;;;;14.59;nan;101488.59;5009117;28;20037;-83
2023/06/24 00:39:55;;;;;;;12.35;8.07;;;;;;;14.59;nan;101485.94;4994151;28;20042;-83
2023/06/24 00:42:23;;;;;;;9.93;7.38;;;;;;;14.53;nan;101495.84;4990419;28;20418;-83
2023/06/24 00:44:50;;;;;;;9.40;7.45;;;;;;;14.47;nan;101486.25;5011012;28;20028;-83
2023/06/24 00:47:18;;;;;;;9.95;7.32;;;;;;;14.53;nan;101482.56;4995953;28;20058;-82
2023/06/24 00:49:45;;;;;;;11.27;7.93;;;;;;;14.51;nan;101479.94;5003314;28;20042;-83
2023/06/24 00:52:15;;;;;;;10.70;8.10;;;;;;;14.38;nan;101478.47;5001702;28;20034;-85
2023/06/24 00:54:43;;;;;;;9.48;7.20;;;;;;;14.37;nan;101479.34;5004825;28;20033;-84
2023/06/24 00:57:12;;;;;;;11.52;8.15;;;;;;;14.39;nan;101476.66;4976699;28;20522;-83
2023/06/24 00:59:40;;;;;;;10.15;7.68;;;;;;;14.28;nan;101474.25;4998941;28;20054;-81
2023/06/24 01:02:07;;;;;;;11.13;7.90;;;;;;;14.50;nan;101483.50;5000805;28;20049;-82
2023/06/24 01:04:34;;;;;;;10.07;7.70;;;;;;;14.26;nan;101482.25;5017577;28;20033;-81
2023/06/24 01:07:02;;;;;;;11.35;7.45;;;;;;;14.30;nan;101489.25;4995914;28;20038;-82
2023/06/24 01:09:29;;;;;;;12.23;8.45;;;;;;;14.18;nan;101494.84;4998336;28;20037;-83
2023/06/24 01:11:56;;;;;;;11.15;7.47;;;;;;;14.18;nan;101489.53;5011795;28;20052;-81
2023/06/24 01:14:23;;;;;;;11.13;8.05;;;;;;;14.04;nan;101503.13;5011123;28;20500;-81
2023/06/24 01:17:16;;;;;;;10.43;7.65;;;;;;;13.99;nan;101494.38;4994272;28;20048;-81
2023/06/24 01:20:10;;;;;;;9.90;7.85;;;;;;;13.98;nan;101495.28;5012475;28;20045;-81
2023/06/24 01:22:46;;;;;;;11.35;8.07;;;;;;;13.90;nan;101491.91;4995015;28;20034;-81
2023/06/24 01:25:48;;;;;;;9.63;7.45;;;;;;;13.83;nan;101492.94;5007841;28;20052;-81
2023/06/24 01:28:44;;;;;;;10.10;7.43;;;;;;;13.79;nan;101489.47;4981257;28;20064;-81
2023/06/24 01:31:49;;;;;;;12.00;8.30;;;;;;;13.80;nan;101491.22;4991816;28;20121;-82
2023/06/24 01:34:29;;;;;;;9.07;6.90;;;;;;;13.69;nan;101487.88;5009892;28;20042;-82
2023/06/24 01:37:04;;;;;;;9.05;7.53;;;;;;;13.70;nan;101486.97;4995366;28;20038;-82
2023/06/24 01:39:34;;;;;;;7.57;6.63;;;;;;;13.66;nan;101495.94;5011838;28;20044;-81
2023/06/24 01:42:07;;;;;;;10.30;6.82;;;;;;;13.67;nan;101499.47;4996776;28;20057;-81
2023/06/24 01:44:34;;;;;;;9.93;7.75;;;;;;;13.56;nan;101494.38;4989307;28;20026;-81
2023/06/24 01:47:04;;;;;;;12.38;7.90;;;;;;;13.50;nan;101495.34;5005105;28;20499;-81
2023/06/24 01:49:33;;;;;;;12.25;7.05;;;;;;;13.44;nan;101490.16;4994337;28;20050;-82
2023/06/24 01:52:01;;;;;;;14.70;8.07;;;;;;;13.41;nan;101484.91;4993427;28;20111;-82
2023/06/24 01:54:28;;;;;;;9.60;7.40;;;;;;;13.51;nan;101485.59;4991311;28;20030;-82
2023/06/24 01:56:57;;;;;;;9.48;7.35;;;;;;;13.41;nan;101478.72;4996225;28;20052;-81
2023/06/24 01:59:25;;;;;;;11.48;8.23;;;;;;;13.52;nan;101482.03;5012327;28;20041;-81
2023/06/24 02:01:53;;;;;;;9.95;7.32;;;;;;;13.61;nan;101483.63;4993695;28;20068;-82
2023/06/24 02:04:22;;;;;;;10.15;7.05;;;;;;;13.60;nan;101482.78;4988755;28;20446;-81
2023/06/24 02:06:50;;;;;;;12.27;7.90;;;;;;;13.47;nan;101484.81;5001960;28;20041;-81
2023/06/24 02:09:19;;;;;;;10.40;7.50;;;;;;;13.43;nan;101488.41;4994798;28;20046;-81
2023/06/24 02:11:46;;;;;;;11.05;7.45;;;;;;;13.33;nan;101476.22;4994781;28;20042;-84
2023/06/24 02:14:15;;;;;;;11.02;8.15;;;;;;;13.41;nan;101481.38;4993923;28;20030;-82
2023/06/24 02:16:43;;;;;;;10.85;7.95;;;;;;;13.25;nan;101475.50;5011656;28;20029;-82
2023/06/24 02:19:10;;;;;;;10.07;7.85;;;;;;;13.27;nan;101473.66;5007514;28;20425;-85
2023/06/24 02:21:41;;;;;;;11.15;7.47;;;;;;;13.20;nan;101469.38;5005729;28;20045;-84
2023/06/24 02:24:08;;;;;;;9.48;6.72;;;;;;;13.17;nan;101467.63;4996208;28;20044;-84
2023/06/24 02:26:40;;;;;;;10.68;7.68;;;;;;;13.21;nan;101463.19;5015160;28;20064;-82
2023/06/24 02:29:09;;;;;;;10.43;7.38;;;;;;;13.13;nan;101465.06;4979349;28;20041;-83
2023/06/24 02:31:36;;;;;;;11.88;6.82;;;;;;;13.22;nan;101464.94;5015561;28;20045;-83
2023/06/24 02:34:03;;;;;;;9.38;6.90;;;;;;;13.14;nan;101457.09;5008223;28;20036;-82
2023/06/24 02:36:30;;;;;;;10.65;7.00;;;;;;;13.09;nan;101474.84;4979479;28;20057;-84
2023/06/24 02:38:57;;;;;;;10.30;7.55;;;;;;;13.15;nan;101457.97;5000013;28;20037;-84
2023/06/24 02:41:24;;;;;;;9.40;6.65;;;;;;;13.04;nan;101455.50;5008514;28;20037;-82
2023/06/24 02:43:51;;;;;;;10.05;7.63;;;;;;;13.13;nan;101465.94;4993009;28;20038;-83
2023/06/24 02:46:19;;;;;;;10.73;7.75;;;;;;;13.01;nan;101470.59;5012111;28;20046;-82
2023/06/24 02:48:47;;;;;;;9.38;6.97;;;;;;;13.05;nan;101465.22;5015053;28;20033;-82
2023/06/24 02:51:14;;;;;;;9.30;7.18;;;;;;;13.03;nan;101476.72;4995428;28;20040;-82
2023/06/24 02:53:42;;;;;;;10.68;7.90;;;;;;;13.00;nan;101484.75;5007012;28;20030;-84
2023/06/24 02:56:12;;;;;;;10.40;7.05;;;;;;;13.04;nan;101479.38;4975732;28;20038;-85
2023/06/24 02:58:41;;;;;;;10.35;6.88;;;;;;;13.00;nan;101476.78;4998025;28;20053;-83
2023/06/24 03:01:08;;;;;;;10.40;7.57;;;;;;;12.94;nan;101489.25;5011755;28;20037;-82
2023/06/24 03:03:35;;;;;;;10.18;6.65;;;;;;;12.97;nan;101491.00;5014009;28;20042;-84
2023/06/24 03:06:03;;;;;;;11.48;7.47;;;;;;;13.04;nan;101497.94;4992169;28;20034;-81
2023/06/24 03:08:30;;;;;;;8.73;6.63;;;;;;;13.03;nan;101493.56;5014855;28;20038;-82
2023/06/24 03:10:57;;;;;;;10.65;7.38;;;;;;;13.05;nan;101501.47;4996670;28;20075;-82
2023/06/24 03:13:25;;;;;;;11.55;7.80;;;;;;;13.05;nan;101496.16;4986857;28;20048;-81
2023/06/24 03:15:52;;;;;;;11.30;8.30;;;;;;;13.06;nan;101503.22;5008525;28;20030;-82
2023/06/24 03:18:19;;;;;;;10.32;7.93;;;;;;;13.10;nan;101499.59;5014818;28;20034;-83
2023/06/24 03:20:47;;;;;;;10.57;7.70;;;;;;;13.08;nan;101507.59;4976991;28;20038;-81
2023/06/24 03:23:14;;;;;;;11.93;8.80;;;;;;;13.17;nan;101506.56;4993991;28;20395;-82
2023/06/24 03:25:41;;;;;;;11.35;7.55;;;;;;;13.10;nan;101511.09;4982689;28;20518;-81
2023/06/24 03:28:08;;;;;;;10.50;7.95;;;;;;;13.16;nan;101518.06;5001803;28;20038;-85
2023/06/24 03:30:35;;;;;;;12.93;8.30;;;;;;;13.15;nan;101517.19;5015400;28;20117;-82
2023/06/24 03:33:02;;;;;;;11.45;7.88;;;;;;;13.13;nan;101526.09;4998117;28;20041;-82
2023/06/24 03:35:32;;;;;;;10.38;8.30;;;;;;;13.14;nan;101520.75;5015165;28;21235;-82
2023/06/24 03:37:59;;;;;;;11.50;7.43;;;;;;;13.12;nan;101529.66;4993431;28;20064;-82
2023/06/24 03:40:26;;;;;;;12.85;8.35;;;;;;;13.16;nan;101526.91;5000452;28;20056;-82
2023/06/24 03:42:53;;;;;;;11.82;7.80;;;;;;;13.13;nan;101532.28;5010975;28;20490;-83
2023/06/24 03:45:20;;;;;;;10.48;7.97;;;;;;;13.08;nan;101541.22;4992583;28;20033;-83
2023/06/24 03:47:47;;;;;;;10.57;8.18;;;;;;;13.13;nan;101531.41;5012882;28;20038;-82
2023/06/24 03:50:14;;;;;;;11.30;8.02;;;;;;;13.13;nan;101534.94;4993834;28;20042;-83
2023/06/24 03:52:41;;;;;;;13.07;9.10;;;;;;;13.14;nan;101538.47;4996722;28;20040;-81
2023/06/24 03:55:08;;;;;;;10.88;8.20;;;;;;;13.10;nan;101539.41;4978312;28;20042;-82
2023/06/24 03:57:35;;;;;;;11.98;7.72;;;;;;;13.16;nan;101537.53;4998365;28;20541;-82
2023/06/24 04:00:12;;;;;;;11.10;8.50;;;;;;;13.16;nan;101539.31;5009363;28;20030;-84
2023/06/24 04:02:39;;;;;;;10.00;7.53;;;;;;;13.18;nan;101540.16;5011799;28;20060;-82
2023/06/24 04:05:06;;;;;;;11.60;8.32;;;;;;;13.23;nan;101538.34;5000647;28;20492;-82
2023/06/24 04:07:34;;;;;;;10.50;7.60;;;;;;;13.35;nan;101531.91;5018724;28;20044;-82
2023/06/24 04:10:03;;;;;;;11.07;7.95;;;;;;;13.42;nan;101534.44;5013183;28;20033;-81
2023/06/24 04:12:32;;;;;;;14.38;9.20;;;;;;;13.48;nan;101531.69;5010843;28;20034;-81
2023/06/24 04:14:59;;;;;;;14.43;10.02;;;;;;;13.60;nan;101532.34;4970877;28;20037;-82
2023/06/24 04:17:26;;;;;;;10.68;8.00;;;;;;;13.67;nan;101532.19;4988793;28;20030;-82
2023/06/24 04:19:53;;;;;;;12.15;9.13;;;;;;;13.79;nan;101536.41;5011299;28;20046;-83
2023/06/24 04:22:20;;;;;;;12.13;9.13;;;;;;;13.82;nan;101541.66;4990211;28;20679;-82
2023/06/24 04:24:47;;;;;;;11.50;8.13;;;;;;;13.82;nan;101543.44;4994103;28;20040;-81
2023/06/24 04:27:14;;;;;;;13.10;8.82;;;;;;;13.85;nan;101543.38;4994937;28;20046;-81
2023/06/24 04:29:41;;;;;;;9.52;7.93;;;;;;;13.90;nan;101536.19;4980378;28;20045;-83
2023/06/24 04:32:08;;;;;;;12.30;8.50;;;;;;;13.91;nan;101543.25;4995292;28;20034;-80
2023/06/24 04:34:35;;;;;;;12.02;8.43;;;;;;;13.92;nan;101547.66;4997516;28;20403;-81
2023/06/24 04:37:02;;;;;;;13.13;8.40;;;;;;;13.98;nan;101547.53;5011089;28;20518;-81
2023/06/24 04:39:29;;;;;;;9.40;7.65;;;;;;;14.03;nan;101551.84;4993832;28;20037;-81
2023/06/24 04:41:56;;;;;;;10.77;8.43;;;;;;;14.06;nan;101548.25;4993815;28;20022;-81
2023/06/24 04:44:23;;;;;;;9.05;7.65;;;;;;;14.13;nan;101557.00;5008536;28;20056;-82
2023/06/24 04:46:52;;;;;;;10.52;7.28;;;;;;;14.22;nan;101556.78;4991499;28;20052;-81
2023/06/24 04:49:19;;;;;;;12.07;8.05;;;;;;;14.33;nan;101554.75;4995130;28;20687;-82
2023/06/24 04:51:46;;;;;;;11.68;8.90;;;;;;;14.42;nan;101556.34;4995176;28;20042;-81
2023/06/24 04:54:13;;;;;;;11.13;8.60;;;;;;;14.55;nan;101553.44;4996822;28;20042;-83
2023/06/24 04:56:41;;;;;;;11.75;8.60;;;;;;;14.65;nan;101554.09;4991415;28;20040;-82
2023/06/24 04:59:08;;;;;;;11.57;8.63;;;;;;;14.73;nan;101553.91;5004176;28;20037;-81
2023/06/24 05:01:35;;;;;;;12.40;9.13;;;;;;;14.77;nan;101552.91;5008198;28;20037;-81
2023/06/24 05:04:02;;;;;;;15.38;9.00;;;;;;;14.82;nan;101557.22;5011917;28;20041;-81
2023/06/24 05:06:29;;;;;;;12.32;8.63;;;;;;;14.89;nan;101558.84;5015389;28;20026;-82
2023/06/24 05:08:56;;;;;;;11.98;8.73;;;;;;;15.01;nan;101565.63;4972177;28;20036;-84
2023/06/24 05:11:23;;;;;;;12.82;9.13;;;;;;;15.15;nan;101568.84;4994522;28;20729;-81
2023/06/24 05:13:50;;;;;;;11.43;8.68;;;;;;;15.28;nan;101563.19;5011595;28;20040;-81
2023/06/24 05:16:17;;;;;;;11.10;9.25;;;;;;;15.37;nan;101561.16;5011580;28;20040;-82
2023/06/24 05:18:45;;;;;;;11.75;7.70;;;;;;;15.54;nan;101563.38;4979944;28;20526;-82
2023/06/24 05:21:12;;;;;;;11.05;8.07;;;;;;;16.04;nan;101569.13;4977039;28;20415;-84
2023/06/24 05:23:39;;;;;;;11.48;7.85;;;;;;;16.21;nan;101566.84;4978907;28;20067;-82
2023/06/24 05:26:06;;;;;;;17.27;8.35;;;;;;;16.34;nan;101572.72;4977905;28;20037;-83
2023/06/24 05:28:33;;;;;;;9.73;7.65;;;;;;;16.33;nan;101576.31;4976804;28;20042;-81
2023/06/24 05:31:00;;;;;;;11.70;7.53;;;;;;;16.40;nan;101572.53;4998287;28;20434;-82
2023/06/24 05:33:27;;;;;;;10.93;7.72;;;;;;;16.55;nan;101576.50;5012542;28;20034;-82
2023/06/24 05:35:54;;;;;;;11.27;8.70;;;;;;;16.56;nan;101570.25;4979048;28;20056;-81
2023/06/24 05:38:21;;;;;;;9.60;7.82;;;;;;;16.75;nan;101579.50;5013953;28;20038;-82
2023/06/24 05:40:48;;;;;;;11.40;8.05;;;;;;;16.99;nan;101572.50;4985898;28;20037;-81
2023/06/24 05:43:15;;;;;;;9.10;7.38;;;;;;;17.20;nan;101570.03;5011748;28;20041;-84
2023/06/24 05:45:41;;;;;;;10.63;7.22;;;;;;;17.45;nan;101571.81;4978548;28;20052;-82
2023/06/24 05:48:09;;;;;;;9.00;7.30;;;;;;;18.04;nan;101576.00;5010736;28;20048;-84
2023/06/24 05:50:35;;;;;;;10.65;6.55;;;;;;;19.09;nan;101577.25;5010256;28;20031;-81
2023/06/24 05:53:03;;;;;;;11.30;7.57;;;;;;;19.71;nan;101578.22;4983065;28;20038;-83
2023/06/24 05:55:29;;;;;;;9.73;6.40;;;;;;;20.44;nan;101574.91;4990838;28;20068;-81
2023/06/24 05:57:56;;;;;;;7.63;5.57;;;;;;;21.72;nan;101573.03;4997053;28;20030;-84
2023/06/24 06:00:23;;;;;;;7.43;5.93;;;;;;;22.73;nan;101598.03;5012703;28;20034;-81
2023/06/24 06:02:50;;;;;;;10.77;6.75;;;;;;;22.60;nan;101951.66;4994634;28;20038;-82
2023/06/24 06:05:17;;;;;;;7.88;5.97;;;;;;;23.01;nan;102089.72;4996657;28;20060;-81
2023/06/24 06:07:44;;;;;;;10.10;7.18;;;;;;;22.96;nan;102153.78;5007057;28;20150;-82
2023/06/24 06:10:15;;;;;;;9.93;7.20;;;;;;;22.91;nan;102070.47;4994758;28;20041;-84
2023/06/24 06:12:42;;;;;;;8.48;6.82;;;;;;;22.56;nan;102064.06;4995756;28;20052;-82
2023/06/24 06:15:09;;;;;;;9.63;6.20;;;;;;;22.28;nan;102136.31;4982735;28;20046;-82
2023/06/24 06:17:37;;;;;;;9.90;6.90;;;;;;;21.75;nan;102116.25;4995278;28;20037;-86
2023/06/24 06:20:04;;;;;;;10.57;6.60;;;;;;;21.52;nan;102081.41;4979372;28;20052;-83
2023/06/24 06:22:37;;;;;;;7.28;5.88;;;;;;;21.31;nan;102077.84;4978273;28;20048;-84
2023/06/24 06:25:05;;;;;;;9.52;7.13;;;;;;;21.23;nan;102080.81;4994396;28;20034;-83
2023/06/24 06:27:32;;;;;;;8.52;7.07;;;;;;;20.80;nan;101797.88;5010160;28;20044;-83
2023/06/24 06:29:59;;;;;;;7.68;6.07;;;;;;;20.89;nan;101960.47;4992532;28;20514;-84
2023/06/24 06:32:26;;;;;;;7.68;6.53;;;;;;;20.84;nan;103533.28;4994785;28;20034;-83
2023/06/24 06:34:53;;;;;;;9.45;6.22;;;;;;;20.63;nan;101807.63;4997397;28;20513;-85
2023/06/24 06:37:20;;;;;;;7.90;6.47;;;;;;;20.54;nan;101800.88;4992850;28;20042;-81
2023/06/24 06:39:47;;;;;;;7.65;5.63;;;;;;;20.76;nan;101822.25;4997518;28;20042;-83
2023/06/24 06:42:14;;;;;;;9.07;7.28;;;;;;;20.92;nan;101826.00;4976228;28;20045;-83
2023/06/24 06:44:41;;;;;;;8.75;6.40;;;;;;;21.14;nan;101838.47;4999507;28;20041;-84
2023/06/24 06:47:09;;;;;;;8.95;6.50;;;;;;;21.18;nan;101848.13;5002740;28;20104;-84
2023/06/24 06:49:36;;;;;;;7.82;6.47;;;;;;;20.98;nan;101838.28;4995246;28;20042;-84
2023/06/24 06:52:04;;;;;;;6.95;6.22;;;;;;;20.89;nan;101817.22;4975432;28;20040;-84
2023/06/24 06:54:31;;;;;;;7.45;6.28;;;;;;;20.63;nan;101821.94;4995436;28;20046;-82
2023/06/24 06:57:03;;;;;;;8.10;5.93;;;;;;;20.36;nan;101839.22;4991533;28;20046;-82
2023/06/24 06:59:31;;;;;;;7.95;6.28;;;;;;;20.22;nan;101840.66;5010534;28;20038;-84
2023/06/24 07:01:58;;;;;;;8.32;6.35;;;;;;;20.45;nan;101828.13;4991237;28;20040;-83
2023/06/24 07:04:25;;;;;;;8.48;6.55;;;;;;;20.54;nan;101833.09;4977179;28;20415;-81
2023/06/24 07:06:52;;;;;;;7.85;6.45;;;;;;;20.69;nan;101828.84;4981825;28;20880;-82
2023/06/24 07:09:19;;;;;;;6.60;5.63;;;;;;;20.91;nan;101829.63;4996386;28;20042;-82
2023/06/24 07:11:48;;;;;;;9.65;6.50;;;;;;;21.11;nan;101844.00;4990565;28;20046;-83
2023/06/24 07:14:15;;;;;;;7.32;5.40;;;;;;;20.76;nan;101836.53;4982023;28;20041;-82
2023/06/24 07:16:42;;;;;;;8.45;6.30;;;;;;;20.91;nan;101837.69;5010459;28;20035;-81
2023/06/24 07:19:09;;;;;;;7.10;5.78;;;;;;;20.99;nan;101840.91;4991912;28;20044;-83
2023/06/24 07:21:37;;;;;;;7.13;6.43;;;;;;;21.13;nan;101839.41;4975466;28;20041;-82
2023/06/24 07:24:06;;;;;;;7.65;6.07;;;;;;;21.08;nan;101792.13;5009442;28;20045;-81
2023/06/24 07:26:33;;;;;;;7.03;5.95;;;;;;;21.10;nan;101620.06;5016835;28;20036;-82
2023/06/24 07:29:00;;;;;;;7.63;5.57;;;;;;;20.96;nan;102254.81;4977450;28;20403;-82
2023/06/24 07:31:35;;;;;;;10.35;6.13;;;;;;;21.08;nan;102219.38;5001248;28;20038;-82
2023/06/24 07:34:02;;;;;;;7.55;6.18;;;;;;;21.32;nan;102265.06;4989759;28;20382;-81
2023/06/24 07:36:29;;;;;;;7.05;5.15;;;;;;;21.43;nan;102245.81;5015098;28;20491;-82
2023/06/24 07:38:56;;;;;;;6.55;5.25;;;;;;;21.42;nan;102244.94;4981040;28;20410;-82
2023/06/24 07:41:23;;;;;;;7.13;5.68;;;;;;;21.22;nan;102240.34;4979754;28;20439;-82
2023/06/24 07:43:50;;;;;;;7.50;5.85;;;;;;;21.25;nan;102234.84;5011354;28;20025;-83
2023/06/24 07:46:17;;;;;;;7.78;5.50;;;;;;;21.24;nan;102226.84;4997490;28;20125;-82
2023/06/24 07:48:44;;;;;;;7.88;5.40;;;;;;;21.30;nan;102224.81;5015988;28;20030;-83
2023/06/24 07:51:12;;;;;;;5.60;5.07;;;;;;;21.21;nan;102227.84;4996939;28;20042;-82
2023/06/24 07:53:39;;;;;;;6.90;5.40;;;;;;;20.83;nan;102215.03;4997132;28;20105;-82
2023/06/24 07:56:06;;;;;;;6.40;5.35;;;;;;;21.22;nan;102217.97;4998026;28;20089;-81
2023/06/24 07:58:34;;;;;;;5.90;5.20;;;;;;;21.62;nan;102215.44;4987128;28;20094;-83
2023/06/24 08:01:01;;;;;;;7.20;4.93;;;;;;;21.75;nan;102231.91;4987532;28;20117;-81
2023/06/24 08:03:28;;;;;;;5.72;4.63;;;;;;;21.70;nan;102227.69;5014493;28;20038;-81
2023/06/24 08:05:56;;;;;;;7.50;5.10;;;;;;;21.53;nan;102218.50;4997515;28;20046;-82
2023/06/24 08:08:23;;;;;;;7.18;4.72;;;;;;;21.59;nan;102233.50;4996179;28;20048;-83
2023/06/24 08:10:50;;;;;;;6.95;5.07;;;;;;;21.85;nan;102232.41;4979233;28;20060;-82
2023/06/24 08:13:17;;;;;;;5.53;4.80;;;;;;;22.02;nan;102246.00;4991246;28;20077;-82
2023/06/24 08:15:44;;;;;;;7.65;4.38;;;;;;;21.92;nan;102232.06;4996153;28;20033;-81
2023/06/24 08:18:11;;;;;;;6.57;4.65;;;;;;;21.78;nan;102228.25;4980156;28;20042;-83
2023/06/24 08:20:38;;;;;;;5.22;4.72;;;;;;;21.56;nan;102213.00;4982004;28;20049;-83
2023/06/24 08:23:09;;;;;;;6.47;5.07;;;;;;;21.60;nan;102219.09;4978276;28;20038;-83
2023/06/24 08:25:36;;;;;;;6.40;5.53;;;;;;;21.84;nan;102230.66;4996509;28;20037;-83
2023/06/24 08:28:03;;;;;;;5.10;4.47;;;;;;;21.79;nan;102216.53;4998866;28;20517;-81
2023/06/24 08:30:30;;;;;;;7.47;5.50;;;;;;;22.38;nan;102219.31;5014957;28;20037;-81
2023/06/24 08:32:57;;;;;;;6.53;5.32;;;;;;;22.60;nan;102235.38;4998290;28;20500;-79
2023/06/24 08:35:24;;;;;;;5.63;5.03;;;;;;;22.69;nan;102229.56;5014676;28;20038;-83
2023/06/24 08:37:51;;;;;;;6.90;5.03;;;;;;;22.79;nan;102239.94;5017126;28;20034;-81
2023/06/24 08:40:19;;;;;;;5.88;4.75;;;;;;;22.40;nan;102228.19;4999361;28;20030;-81
2023/06/24 08:42:46;;;;;;;5.72;5.00;;;;;;;22.24;nan;102226.25;5013383;28;20044;-80
2023/06/24 08:45:13;;;;;;;6.03;5.43;;;;;;;22.44;nan;102216.34;5002411;28;20038;-82
2023/06/24 08:47:41;;;;;;;6.90;5.10;;;;;;;22.55;nan;102215.00;4997044;28;20112;-81
2023/06/24 08:50:11;;;;;;;5.70;4.95;;;;;;;22.58;nan;102223.78;4991653;28;20040;-81
2023/06/24 08:52:42;;;;;;;7.85;5.13;;;;;;;22.44;nan;102215.47;4994623;28;20050;-81
2023/06/24 08:55:10;;;;;;;6.50;4.95;;;;;;;22.70;nan;102216.94;4994669;28;20041;-83
2023/06/24 08:57:37;;;;;;;5.75;4.38;;;;;;;22.97;nan;102223.78;5013121;28;20052;-83
2023/06/24 09:00:10;;;;;;;5.13;4.63;;;;;;;23.05;nan;102219.88;5011474;28;20110;-79
2023/06/24 09:02:38;;;;;;;5.40;4.70;;;;;;;23.29;nan;102218.69;5000070;28;20495;-83
2023/06/24 09:05:08;;;;;;;6.60;5.07;;;;;;;22.99;nan;102207.53;4999954;28;20103;-82
2023/06/24 09:07:38;;;;;;;6.15;4.90;;;;;;;23.33;nan;102217.56;5016670;28;20460;-85
2023/06/24 09:10:07;;;;;;;6.15;4.25;;;;;;;23.42;nan;102208.13;5014571;28;20033;-79
2023/06/24 09:12:35;;;;;;;5.65;5.05;;;;;;;23.62;nan;102213.44;4998913;28;20049;-82
2023/06/24 09:15:03;;;;;;;4.38;3.97;;;;;;;23.64;nan;102198.06;5000664;28;20045;-82
2023/06/24 09:17:30;;;;;;;6.93;4.65;;;;;;;23.62;nan;102193.66;5005485;28;20042;-83
2023/06/24 09:20:07;;;;;;;7.05;5.07;;;;;;;23.65;nan;102194.41;4996776;28;20040;-82
2023/06/24 09:22:34;;;;;;;7.07;4.90;;;;;;;23.74;nan;102193.06;5012691;28;20046;-81
2023/06/24 09:25:02;;;;;;;4.53;4.13;;;;;;;23.47;nan;102287.91;4996247;28;20042;-81
2023/06/24 09:27:31;;;;;;;5.03;4.53;;;;;;;23.16;nan;102177.94;4998907;28;20041;-83
2023/06/24 09:29:58;;;;;;;6.57;4.78;;;;;;;22.89;nan;102169.38;4982258;28;20030;-82
2023/06/24 09:32:30;;;;;;;5.43;4.40;;;;;;;23.40;nan;102161.50;4999434;28;20072;-82
2023/06/24 09:34:57;;;;;;;6.13;4.45;;;;;;;22.96;nan;102164.56;5013433;28;20030;-81
2023/06/24 09:37:30;;;;;;;5.45;3.85;;;;;;;23.49;nan;102156.50;5005030;28;20040;-83
2023/06/24 09:39:58;;;;;;;6.70;4.53;;;;;;;23.95;nan;102158.66;4990278;28;20905;-81
2023/06/24 09:42:25;;;;;;;4.72;4.28;;;;;;;24.19;nan;102154.66;4996687;28;20053;-80
2023/06/24 09:44:55;;;;;;;5.00;4.13;;;;;;;24.09;nan;102170.50;5002749;28;20230;-82
2023/06/24 09:47:25;;;;;;;5.43;4.13;;;;;;;24.22;nan;102165.31;5003110;28;20033;-82
2023/06/24 09:49:53;;;;;;;5.95;4.20;;;;;;;23.89;nan;102157.19;5004051;28;20843;-81
2023/06/24 09:52:20;;;;;;;5.60;4.22;;;;;;;24.19;nan;102146.56;4995471;28;20074;-83
2023/06/24 09:54:51;;;;;;;4.50;4.10;;;;;;;24.55;nan;102153.63;4978260;28;20042;-82
2023/06/24 09:57:25;;;;;;;4.13;3.72;;;;;;;24.79;nan;102141.44;4997562;28;20890;-84
2023/06/24 09:59:52;;;;;;;4.72;4.25;;;;;;;24.96;nan;102143.19;5020134;28;20047;-83
2023/06/24 10:02:20;;;;;;;6.30;3.78;;;;;;;25.19;nan;102141.91;5010268;28;20399;-83
2023/06/24 10:04:48;;;;;;;5.38;4.45;;;;;;;25.35;nan;102131.06;4975168;28;20053;-82
2023/06/24 10:07:15;;;;;;;4.63;4.18;;;;;;;25.25;nan;102128.91;5013874;28;20033;-82
2023/06/24 10:09:43;;;;;;;5.43;4.10;;;;;;;25.31;nan;102114.16;5011172;28;20042;-82
2023/06/24 10:12:10;;;;;;;4.40;4.00;;;;;;;24.90;nan;102154.38;5011624;28;20523;-81
2023/06/24 10:14:37;;;;;;;5.22;4.30;;;;;;;24.96;nan;102132.38;4988626;28;20038;-82
2023/06/24 10:20:42;;;;;;;5.38;4.22;;;;;;;24.87;nan;102105.88;5018907;28;20052;-83
2023/06/24 10:23:11;;;;;;;4.93;4.40;;;;;;;24.91;nan;102099.34;5004894;28;20116;-83
2023/06/24 10:25:39;;;;;;;7.25;4.43;;;;;;;25.14;nan;102111.53;4981141;28;20429;-86
2023/06/24 10:28:06;;;;;;;5.72;3.90;;;;;;;25.21;nan;102102.09;4996368;28;20137;-80
2023/06/24 10:30:33;;;;;;;4.13;3.65;;;;;;;25.50;nan;102101.25;5014612;28;20124;-83
2023/06/24 10:33:26;;;;;;;7.15;4.35;;;;;;;25.43;nan;102089.03;4997435;28;20050;-85
2023/06/24 10:35:57;;;;;;;4.13;3.72;;;;;;;25.57;nan;102095.47;4983608;28;20060;-87
2023/06/24 10:38:24;;;;;;;4.40;3.83;;;;;;;25.56;nan;102086.47;5012614;28;20452;-81
2023/06/24 10:41:15;;;;;;;5.07;4.10;;;;;;;25.61;nan;102088.91;5012447;28;20369;-81
2023/06/24 10:43:42;;;;;;;3.83;3.42;;;;;;;25.66;nan;102079.53;5010675;28;20124;-82
2023/06/24 10:46:15;;;;;;;6.25;4.10;;;;;;;25.49;nan;102071.56;4998647;28;20037;-86
2023/06/24 10:48:42;;;;;;;5.05;3.63;;;;;;;25.56;nan;102059.41;4984167;28;20120;-82
2023/06/24 10:51:09;;;;;;;5.53;3.90;;;;;;;25.44;nan;102052.91;4995843;28;20490;-84
2023/06/24 10:53:36;;;;;;;5.32;4.03;;;;;;;25.37;nan;102045.25;4998988;28;20466;-83
2023/06/24 10:56:04;;;;;;;4.07;3.60;;;;;;;25.57;nan;102047.63;4983164;28;20049;-85
2023/06/24 10:58:31;;;;;;;4.93;4.22;;;;;;;25.71;nan;102049.50;4997421;28;20045;-80
2023/06/24 11:01:08;;;;;;;6.38;3.33;;;;;;;25.49;nan;102026.44;5012878;28;20038;-82
2023/06/24 11:03:35;;;;;;;4.78;4.20;;;;;;;25.69;nan;102040.56;4995723;28;20036;-81
2023/06/24 11:06:04;;;;;;;3.70;3.30;;;;;;;25.64;nan;102032.72;5016469;28;20113;-80
2023/06/24 11:08:31;;;;;;;5.35;3.65;;;;;;;25.39;nan;102032.50;5013924;28;20491;-80
2023/06/24 11:10:58;;;;;;;3.90;3.50;;;;;;;25.36;nan;102019.16;5014329;28;20029;-82
2023/06/24 11:13:25;;;;;;;5.10;3.55;;;;;;;25.25;nan;102090.16;4995138;28;20048;-81
2023/06/24 11:15:53;;;;;;;4.75;4.07;;;;;;;25.57;nan;102085.50;4996028;28;20044;-83
2023/06/24 11:18:20;;;;;;;4.32;3.50;;;;;;;25.46;nan;102074.44;5012913;28;20037;-82
2023/06/24 11:20:47;;;;;;;4.32;3.92;;;;;;;25.61;nan;102059.13;4996504;28;20042;-81
2023/06/24 11:23:14;;;;;;;5.10;3.78;;;;;;;25.78;nan;102053.56;4995787;28;20095;-82
2023/06/24 11:25:42;;;;;;;4.50;3.47;;;;;;;25.93;nan;102057.16;4998003;28;20144;-80
2023/06/24 11:28:19;;;;;;;5.75;3.63;;;;;;;25.59;nan;102040.28;4995857;28;20040;-80
2023/06/24 11:30:48;;;;;;;5.30;3.88;;;;;;;25.87;nan;102035.88;4997382;28;20044;-81
2023/06/24 11:33:27;;;;;;;4.32;3.40;;;;;;;26.07;nan;102047.19;4995823;28;20087;-80
2023/06/24 11:35:55;;;;;;;5.20;3.60;;;;;;;26.18;nan;102046.50;4992531;28;20049;-83
2023/06/24 11:38:24;;;;;;;3.72;3.28;;;;;;;25.79;nan;102034.50;5008089;28;20041;-80
2023/06/24 11:40:51;;;;;;;5.25;3.53;;;;;;;26.05;nan;102037.41;4998067;28;20140;-80
2023/06/24 11:43:18;;;;;;;4.53;3.17;;;;;;;26.06;nan;101649.16;5012618;28;20048;-84
2023/06/24 11:45:48;;;;;;;3.55;3.13;;;;;;;26.09;nan;101899.00;4999447;28;20402;-80
2023/06/24 11:48:15;;;;;;;4.93;3.60;;;;;;;26.26;nan;101854.53;4993947;28;20523;-80